sensor_id;sensor_type;location;lat;lon;timestamp;pressure;altitude;pressure_sealevel;temperature;humidity
56038;BME280;41907;47.848;9.000;2023-03-22T00:01:59;95633.97;;;8.82;100.00
56038;BME280;41907;47.848;9.000;2023-03-22T00:04:25;95632.97;;;8.78;100.00
56038;BME280;41907;47.848;9.000;2023-03-22T00:06:50;95634.56;;;8.66;100.00
56038;BME280;41907;47.848;9.000;2023-03-22T00:09:16;95625.31;;;8.63;100.00
56038;BME280;41907;47.848;9.000;2023-03-22T00:11:41;95620.22;;;8.67;100.00
56038;BME280;41907;47.848;9.000;2023-03-22T00:14:06;95623.44;;;8.64;100.00
56038;BME280;41907;47.848;9.000;2023-03-22T00:16:32;95614.31;;;8.56;100.00
56038;BME280;41907;47.848;9.000;2023-03-22T00:18:57;95621.28;;;8.52;100.00
56038;BME280;41907;47.848;9.000;2023-03-22T00:21:22;95620.03;;;8.36;100.00
56038;BME280;41907;47.848;9.000;2023-03-22T00:23:48;95614.75;;;8.31;100.00
56038;BME280;41907;47.848;9.000;2023-03-22T00:26:13;95614.66;;;8.22;100.00
56038;BME280;41907;47.848;9.000;2023-03-22T00:28:39;95614.78;;;8.17;100.00
56038;BME280;41907;47.848;9.000;2023-03-22T00:31:05;95617.13;;;8.05;100.00
56038;BME280;41907;47.848;9.000;2023-03-22T00:33:31;95611.31;;;7.89;100.00
56038;BME280;41907;47.848;9.000;2023-03-22T00:36:00;95600.16;;;7.73;100.00
56038;BME280;41907;47.848;9.000;2023-03-22T00:38:26;95599.84;;;7.61;100.00
56038;BME280;41907;47.848;9.000;2023-03-22T00:41:20;95610.97;;;7.63;100.00
56038;BME280;41907;47.848;9.000;2023-03-22T00:43:46;95603.41;;;7.70;100.00
56038;BME280;41907;47.848;9.000;2023-03-22T00:46:12;95607.81;;;7.75;100.00
56038;BME280;41907;47.848;9.000;2023-03-22T00:48:38;95606.97;;;7.79;100.00
56038;BME280;41907;47.848;9.000;2023-03-22T00:51:04;95599.50;;;7.81;100.00
56038;BME280;41907;47.848;9.000;2023-03-22T00:53:30;95597.22;;;7.89;100.00
56038;BME280;41907;47.848;9.000;2023-03-22T00:55:57;95593.31;;;8.00;100.00
56038;BME280;41907;47.848;9.000;2023-03-22T00:58:22;95592.72;;;8.03;100.00
56038;BME280;41907;47.848;9.000;2023-03-22T01:00:48;95586.53;;;8.07;100.00
56038;BME280;41907;47.848;9.000;2023-03-22T01:03:13;95584.75;;;8.03;100.00
56038;BME280;41907;47.848;9.000;2023-03-22T01:05:40;95581.19;;;7.94;100.00
56038;BME280;41907;47.848;9.000;2023-03-22T01:08:09;95587.28;;;7.80;100.00
56038;BME280;41907;47.848;9.000;2023-03-22T01:10:36;95585.31;;;7.72;100.00
56038;BME280;41907;47.848;9.000;2023-03-22T01:13:02;95586.84;;;7.60;100.00
56038;BME280;41907;47.848;9.000;2023-03-22T01:15:27;95593.50;;;7.43;100.00
56038;BME280;41907;47.848;9.000;2023-03-22T01:17:52;95584.41;;;7.31;100.00
56038;BME280;41907;47.848;9.000;2023-03-22T01:20:18;95581.00;;;7.12;100.00
56038;BME280;41907;47.848;9.000;2023-03-22T01:22:43;95581.72;;;6.98;100.00
56038;BME280;41907;47.848;9.000;2023-03-22T01:25:09;95581.00;;;6.93;100.00
56038;BME280;41907;47.848;9.000;2023-03-22T01:27:35;95584.03;;;6.86;100.00
56038;BME280;41907;47.848;9.000;2023-03-22T01:30:00;95577.56;;;6.92;100.00
56038;BME280;41907;47.848;9.000;2023-03-22T01:32:26;95577.00;;;6.95;100.00
56038;BME280;41907;47.848;9.000;2023-03-22T01:34:52;95575.16;;;6.96;100.00
56038;BME280;41907;47.848;9.000;2023-03-22T01:37:18;95569.97;;;7.04;100.00
56038;BME280;41907;47.848;9.000;2023-03-22T01:39:43;95573.59;;;7.27;100.00
56038;BME280;41907;47.848;9.000;2023-03-22T01:42:12;95573.59;;;7.27;100.00
56038;BME280;41907;47.848;9.000;2023-03-22T01:44:37;95569.81;;;7.15;100.00
56038;BME280;41907;47.848;9.000;2023-03-22T01:47:07;95567.31;;;7.04;100.00
56038;BME280;41907;47.848;9.000;2023-03-22T01:49:34;95577.81;;;6.96;100.00
56038;BME280;41907;47.848;9.000;2023-03-22T01:52:10;95572.22;;;6.97;100.00
56038;BME280;41907;47.848;9.000;2023-03-22T01:54:46;95570.41;;;6.74;100.00
56038;BME280;41907;47.848;9.000;2023-03-22T01:57:14;95572.38;;;6.68;100.00
56038;BME280;41907;47.848;9.000;2023-03-22T01:59:40;95569.13;;;6.53;100.00
56038;BME280;41907;47.848;9.000;2023-03-22T02:02:08;95567.53;;;6.52;100.00
56038;BME280;41907;47.848;9.000;2023-03-22T02:04:42;95566.13;;;6.59;100.00
56038;BME280;41907;47.848;9.000;2023-03-22T02:07:12;95559.44;;;6.62;100.00
56038;BME280;41907;47.848;9.000;2023-03-22T02:09:40;95554.16;;;6.62;100.00
56038;BME280;41907;47.848;9.000;2023-03-22T02:14:39;95554.00;;;6.53;100.00
56038;BME280;41907;47.848;9.000;2023-03-22T02:17:52;95552.22;;;6.49;100.00
56038;BME280;41907;47.848;9.000;2023-03-22T02:40:07;95540.50;;;5.65;100.00
56038;BME280;41907;47.848;9.000;2023-03-22T02:42:46;95538.06;;;5.68;100.00
56038;BME280;41907;47.848;9.000;2023-03-22T02:45:48;95539.13;;;5.67;100.00
56038;BME280;41907;47.848;9.000;2023-03-22T02:48:27;95536.78;;;5.66;100.00
56038;BME280;41907;47.848;9.000;2023-03-22T02:51:22;95539.69;;;5.64;100.00
56038;BME280;41907;47.848;9.000;2023-03-22T02:54:02;95539.63;;;5.69;100.00
56038;BME280;41907;47.848;9.000;2023-03-22T02:56:35;95545.53;;;5.61;100.00
56038;BME280;41907;47.848;9.000;2023-03-22T02:59:06;95549.25;;;5.60;100.00
56038;BME280;41907;47.848;9.000;2023-03-22T03:01:38;95547.13;;;5.62;100.00
56038;BME280;41907;47.848;9.000;2023-03-22T03:04:08;95545.44;;;5.71;100.00
56038;BME280;41907;47.848;9.000;2023-03-22T03:06:39;95544.19;;;5.64;100.00
56038;BME280;41907;47.848;9.000;2023-03-22T03:09:11;95550.03;;;5.60;100.00
56038;BME280;41907;47.848;9.000;2023-03-22T03:11:38;95547.47;;;5.55;100.00
56038;BME280;41907;47.848;9.000;2023-03-22T03:14:03;95542.44;;;5.54;100.00
56038;BME280;41907;47.848;9.000;2023-03-22T03:16:30;95530.72;;;5.60;100.00
56038;BME280;41907;47.848;9.000;2023-03-22T03:19:16;95533.75;;;5.48;100.00
56038;BME280;41907;47.848;9.000;2023-03-22T03:29:41;95541.13;;;5.51;100.00
56038;BME280;41907;47.848;9.000;2023-03-22T03:32:26;95532.56;;;5.36;100.00
56038;BME280;41907;47.848;9.000;2023-03-22T03:35:10;95545.72;;;5.41;100.00
56038;BME280;41907;47.848;9.000;2023-03-22T03:37:49;95539.34;;;5.18;100.00
56038;BME280;41907;47.848;9.000;2023-03-22T03:40:23;95550.06;;;4.98;100.00
56038;BME280;41907;47.848;9.000;2023-03-22T03:42:53;95541.94;;;4.89;100.00
56038;BME280;41907;47.848;9.000;2023-03-22T03:45:20;95549.09;;;4.83;100.00
56038;BME280;41907;47.848;9.000;2023-03-22T03:47:46;95548.56;;;4.86;100.00
56038;BME280;41907;47.848;9.000;2023-03-22T03:50:19;95554.44;;;4.78;100.00
56038;BME280;41907;47.848;9.000;2023-03-22T03:52:45;95556.63;;;4.71;100.00
56038;BME280;41907;47.848;9.000;2023-03-22T03:55:10;95556.31;;;4.73;100.00
56038;BME280;41907;47.848;9.000;2023-03-22T03:57:36;95558.94;;;4.78;100.00
56038;BME280;41907;47.848;9.000;2023-03-22T04:00:02;95560.59;;;4.69;100.00
56038;BME280;41907;47.848;9.000;2023-03-22T04:02:28;95563.53;;;4.62;100.00
56038;BME280;41907;47.848;9.000;2023-03-22T04:04:53;95564.66;;;4.51;100.00
56038;BME280;41907;47.848;9.000;2023-03-22T04:07:18;95562.81;;;4.46;100.00
56038;BME280;41907;47.848;9.000;2023-03-22T04:09:44;95561.50;;;4.49;100.00
56038;BME280;41907;47.848;9.000;2023-03-22T04:12:09;95559.66;;;4.44;100.00
56038;BME280;41907;47.848;9.000;2023-03-22T04:14:35;95559.69;;;4.39;100.00
56038;BME280;41907;47.848;9.000;2023-03-22T04:17:00;95559.16;;;4.37;100.00
56038;BME280;41907;47.848;9.000;2023-03-22T04:19:25;95558.41;;;4.32;100.00
56038;BME280;41907;47.848;9.000;2023-03-22T04:21:51;95560.25;;;4.31;100.00
56038;BME280;41907;47.848;9.000;2023-03-22T04:24:18;95560.78;;;4.33;100.00
56038;BME280;41907;47.848;9.000;2023-03-22T04:26:43;95566.03;;;4.38;100.00
56038;BME280;41907;47.848;9.000;2023-03-22T04:29:08;95564.44;;;4.42;100.00
56038;BME280;41907;47.848;9.000;2023-03-22T04:31:34;95564.66;;;4.46;100.00
56038;BME280;41907;47.848;9.000;2023-03-22T04:34:04;95568.88;;;4.47;100.00
56038;BME280;41907;47.848;9.000;2023-03-22T04:36:31;95572.25;;;4.58;100.00
56038;BME280;41907;47.848;9.000;2023-03-22T04:39:01;95569.88;;;4.61;100.00
56038;BME280;41907;47.848;9.000;2023-03-22T04:41:28;95582.03;;;4.57;100.00
56038;BME280;41907;47.848;9.000;2023-03-22T04:43:53;95578.59;;;4.62;100.00
56038;BME280;41907;47.848;9.000;2023-03-22T04:46:22;95579.66;;;4.56;100.00
56038;BME280;41907;47.848;9.000;2023-03-22T04:48:48;95571.53;;;4.52;100.00
56038;BME280;41907;47.848;9.000;2023-03-22T04:51:13;95575.28;;;4.41;100.00
56038;BME280;41907;47.848;9.000;2023-03-22T04:53:39;95574.69;;;4.49;100.00
56038;BME280;41907;47.848;9.000;2023-03-22T04:56:06;95574.47;;;4.40;100.00
56038;BME280;41907;47.848;9.000;2023-03-22T04:58:34;95583.25;;;4.26;100.00
56038;BME280;41907;47.848;9.000;2023-03-22T05:01:00;95581.16;;;4.18;100.00
56038;BME280;41907;47.848;9.000;2023-03-22T05:03:25;95586.50;;;3.97;100.00
56038;BME280;41907;47.848;9.000;2023-03-22T05:05:54;95578.13;;;3.80;100.00
56038;BME280;41907;47.848;9.000;2023-03-22T05:08:21;95579.75;;;3.76;100.00
56038;BME280;41907;47.848;9.000;2023-03-22T05:10:49;95573.66;;;3.81;100.00
56038;BME280;41907;47.848;9.000;2023-03-22T05:13:15;95577.91;;;3.77;100.00
56038;BME280;41907;47.848;9.000;2023-03-22T05:15:40;95576.31;;;3.70;100.00
56038;BME280;41907;47.848;9.000;2023-03-22T05:18:07;95576.84;;;3.67;100.00
56038;BME280;41907;47.848;9.000;2023-03-22T05:20:32;95579.22;;;3.64;100.00
56038;BME280;41907;47.848;9.000;2023-03-22T05:22:58;95580.31;;;3.53;100.00
56038;BME280;41907;47.848;9.000;2023-03-22T05:25:27;95583.50;;;3.34;100.00
56038;BME280;41907;47.848;9.000;2023-03-22T05:27:52;95583.75;;;3.28;100.00
56038;BME280;41907;47.848;9.000;2023-03-22T05:30:18;95571.63;;;3.37;100.00
56038;BME280;41907;47.848;9.000;2023-03-22T05:32:44;95574.28;;;3.37;100.00
56038;BME280;41907;47.848;9.000;2023-03-22T05:35:11;95574.00;;;3.39;100.00
56038;BME280;41907;47.848;9.000;2023-03-22T05:37:37;95576.88;;;3.42;100.00
56038;BME280;41907;47.848;9.000;2023-03-22T05:40:02;95581.34;;;3.52;100.00
56038;BME280;41907;47.848;9.000;2023-03-22T05:42:29;95579.50;;;3.52;100.00
56038;BME280;41907;47.848;9.000;2023-03-22T05:44:55;95573.44;;;3.62;100.00
56038;BME280;41907;47.848;9.000;2023-03-22T05:47:20;95577.63;;;3.73;100.00
56038;BME280;41907;47.848;9.000;2023-03-22T05:49:46;95583.41;;;3.85;100.00
56038;BME280;41907;47.848;9.000;2023-03-22T05:52:11;95586.00;;;4.00;100.00
56038;BME280;41907;47.848;9.000;2023-03-22T05:54:37;95578.53;;;4.18;100.00
56038;BME280;41907;47.848;9.000;2023-03-22T05:57:02;95574.47;;;4.35;100.00
56038;BME280;41907;47.848;9.000;2023-03-22T05:59:28;95578.13;;;4.49;100.00
56038;BME280;41907;47.848;9.000;2023-03-22T06:01:53;95583.31;;;4.65;100.00
56038;BME280;41907;47.848;9.000;2023-03-22T06:04:18;95572.69;;;4.75;100.00
56038;BME280;41907;47.848;9.000;2023-03-22T06:06:45;95565.00;;;4.78;100.00
56038;BME280;41907;47.848;9.000;2023-03-22T06:09:10;95573.41;;;4.91;100.00
56038;BME280;41907;47.848;9.000;2023-03-22T06:11:38;95573.53;;;5.04;100.00
56038;BME280;41907;47.848;9.000;2023-03-22T06:14:03;95576.34;;;5.18;100.00
56038;BME280;41907;47.848;9.000;2023-03-22T06:16:29;95570.41;;;5.31;100.00
56038;BME280;41907;47.848;9.000;2023-03-22T06:18:54;95574.47;;;5.52;100.00
56038;BME280;41907;47.848;9.000;2023-03-22T06:21:20;95575.34;;;5.72;100.00
56038;BME280;41907;47.848;9.000;2023-03-22T06:23:45;95574.56;;;5.95;100.00
56038;BME280;41907;47.848;9.000;2023-03-22T06:26:10;95575.03;;;6.26;100.00
56038;BME280;41907;47.848;9.000;2023-03-22T06:28:36;95569.19;;;6.85;100.00
56038;BME280;41907;47.848;9.000;2023-03-22T06:31:06;95574.09;;;8.71;100.00
56038;BME280;41907;47.848;9.000;2023-03-22T06:33:33;95567.09;;;11.17;94.97
56038;BME280;41907;47.848;9.000;2023-03-22T06:35:58;95570.09;;;13.15;81.12
56038;BME280;41907;47.848;9.000;2023-03-22T06:38:24;95560.50;;;14.85;69.69
56038;BME280;41907;47.848;9.000;2023-03-22T06:40:50;95557.84;;;15.97;62.64
56038;BME280;41907;47.848;9.000;2023-03-22T06:43:15;95567.41;;;16.73;57.51
56038;BME280;41907;47.848;9.000;2023-03-22T06:45:40;95563.66;;;17.51;52.99
56038;BME280;41907;47.848;9.000;2023-03-22T06:48:06;95559.34;;;18.31;49.37
56038;BME280;41907;47.848;9.000;2023-03-22T06:50:31;95568.69;;;18.82;47.31
56038;BME280;41907;47.848;9.000;2023-03-22T06:52:58;95569.69;;;19.27;46.21
56038;BME280;41907;47.848;9.000;2023-03-22T06:55:23;95580.34;;;19.46;45.21
56038;BME280;41907;47.848;9.000;2023-03-22T06:57:49;95573.09;;;19.84;44.08
56038;BME280;41907;47.848;9.000;2023-03-22T07:00:15;95581.84;;;20.44;42.89
56038;BME280;41907;47.848;9.000;2023-03-22T07:02:40;95579.97;;;21.03;41.26
56038;BME280;41907;47.848;9.000;2023-03-22T07:05:06;95583.22;;;21.26;39.94
56038;BME280;41907;47.848;9.000;2023-03-22T07:07:31;95581.38;;;20.83;40.92
56038;BME280;41907;47.848;9.000;2023-03-22T07:09:57;95579.03;;;19.96;41.31
56038;BME280;41907;47.848;9.000;2023-03-22T07:12:22;95573.91;;;19.54;43.31
56038;BME280;41907;47.848;9.000;2023-03-22T07:14:48;95580.66;;;20.04;41.68
56038;BME280;41907;47.848;9.000;2023-03-22T07:17:13;95583.88;;;21.09;40.03
56038;BME280;41907;47.848;9.000;2023-03-22T07:19:39;95591.91;;;21.57;39.12
56038;BME280;41907;47.848;9.000;2023-03-22T07:22:05;95594.47;;;22.22;37.64
56038;BME280;41907;47.848;9.000;2023-03-22T07:24:31;95590.63;;;23.01;37.32
56038;BME280;41907;47.848;9.000;2023-03-22T07:26:56;95598.03;;;24.16;34.86
56038;BME280;41907;47.848;9.000;2023-03-22T07:29:22;95595.94;;;24.45;34.33
56038;BME280;41907;47.848;9.000;2023-03-22T07:31:47;95603.13;;;24.10;34.64
56038;BME280;41907;47.848;9.000;2023-03-22T07:34:12;95602.22;;;24.35;33.93
56038;BME280;41907;47.848;9.000;2023-03-22T07:36:38;95603.19;;;24.66;33.82
56038;BME280;41907;47.848;9.000;2023-03-22T07:39:03;95603.56;;;25.53;32.04
56038;BME280;41907;47.848;9.000;2023-03-22T07:41:30;95603.75;;;24.95;33.39
56038;BME280;41907;47.848;9.000;2023-03-22T07:43:55;95593.47;;;25.50;32.62
56038;BME280;41907;47.848;9.000;2023-03-22T07:46:20;95608.22;;;25.94;32.42
56038;BME280;41907;47.848;9.000;2023-03-22T07:48:46;95608.25;;;26.51;30.70
56038;BME280;41907;47.848;9.000;2023-03-22T07:51:11;95603.59;;;26.48;30.17
56038;BME280;41907;47.848;9.000;2023-03-22T07:53:36;95611.16;;;26.64;30.41
56038;BME280;41907;47.848;9.000;2023-03-22T07:56:03;95608.22;;;25.94;30.77
56038;BME280;41907;47.848;9.000;2023-03-22T07:58:28;95607.88;;;26.19;30.91
56038;BME280;41907;47.848;9.000;2023-03-22T08:00:54;95597.19;;;25.30;31.09
56038;BME280;41907;47.848;9.000;2023-03-22T08:03:19;95590.13;;;26.04;31.43
56038;BME280;41907;47.848;9.000;2023-03-22T08:05:46;95597.28;;;26.51;30.02
56038;BME280;41907;47.848;9.000;2023-03-22T08:08:12;95595.09;;;26.93;29.49
56038;BME280;41907;47.848;9.000;2023-03-22T08:10:37;95586.16;;;26.39;29.81
56038;BME280;41907;47.848;9.000;2023-03-22T08:13:03;95587.91;;;26.76;29.68
56038;BME280;41907;47.848;9.000;2023-03-22T08:15:28;95588.13;;;27.12;28.91
56038;BME280;41907;47.848;9.000;2023-03-22T08:17:55;95582.75;;;27.71;27.98
56038;BME280;41907;47.848;9.000;2023-03-22T08:20:23;95586.66;;;27.70;27.91
56038;BME280;41907;47.848;9.000;2023-03-22T08:22:52;95594.72;;;27.97;27.44
56038;BME280;41907;47.848;9.000;2023-03-22T08:25:17;95600.06;;;28.04;27.92
56038;BME280;41907;47.848;9.000;2023-03-22T08:27:42;95601.38;;;28.35;26.68
56038;BME280;41907;47.848;9.000;2023-03-22T08:30:09;95596.59;;;27.64;28.34
56038;BME280;41907;47.848;9.000;2023-03-22T08:32:35;95610.44;;;26.03;29.89
56038;BME280;41907;47.848;9.000;2023-03-22T08:35:01;95605.13;;;24.65;31.68
56038;BME280;41907;47.848;9.000;2023-03-22T08:37:26;95600.66;;;23.43;33.97
56038;BME280;41907;47.848;9.000;2023-03-22T08:39:51;95599.28;;;24.04;32.71
56038;BME280;41907;47.848;9.000;2023-03-22T08:42:17;95602.41;;;23.99;34.38
56038;BME280;41907;47.848;9.000;2023-03-22T08:44:42;95601.94;;;22.82;35.45
56038;BME280;41907;47.848;9.000;2023-03-22T08:47:07;95595.59;;;23.42;34.74
56038;BME280;41907;47.848;9.000;2023-03-22T08:49:33;95598.81;;;24.24;34.13
56038;BME280;41907;47.848;9.000;2023-03-22T08:51:58;95601.25;;;25.11;33.23
56038;BME280;41907;47.848;9.000;2023-03-22T08:54:24;95601.63;;;26.18;31.30
56038;BME280;41907;47.848;9.000;2023-03-22T08:56:52;95606.44;;;26.91;30.36
56038;BME280;41907;47.848;9.000;2023-03-22T08:59:17;95614.06;;;27.70;28.79
56038;BME280;41907;47.848;9.000;2023-03-22T09:01:43;95607.03;;;28.08;29.19
56038;BME280;41907;47.848;9.000;2023-03-22T09:04:08;95614.22;;;26.70;29.75
56038;BME280;41907;47.848;9.000;2023-03-22T09:06:33;95611.44;;;27.20;30.24
56038;BME280;41907;47.848;9.000;2023-03-22T09:08:59;95610.44;;;28.12;28.47
56038;BME280;41907;47.848;9.000;2023-03-22T09:11:24;95602.38;;;28.05;27.92
56038;BME280;41907;47.848;9.000;2023-03-22T09:13:50;95601.53;;;27.49;29.71
56038;BME280;41907;47.848;9.000;2023-03-22T09:16:16;95600.56;;;27.99;28.96
56038;BME280;41907;47.848;9.000;2023-03-22T09:18:42;95592.84;;;28.66;27.22
56038;BME280;41907;47.848;9.000;2023-03-22T09:21:09;95597.19;;;28.47;26.85
56038;BME280;41907;47.848;9.000;2023-03-22T09:23:35;95594.50;;;28.07;27.68
56038;BME280;41907;47.848;9.000;2023-03-22T09:26:06;95590.41;;;28.51;27.44
56038;BME280;41907;47.848;9.000;2023-03-22T09:28:33;95586.41;;;28.56;27.61
56038;BME280;41907;47.848;9.000;2023-03-22T09:31:00;95578.44;;;27.90;27.76
56038;BME280;41907;47.848;9.000;2023-03-22T09:33:26;95583.56;;;28.43;27.87
56038;BME280;41907;47.848;9.000;2023-03-22T09:35:53;95581.88;;;28.82;27.71
56038;BME280;41907;47.848;9.000;2023-03-22T09:38:18;95585.34;;;28.34;28.13
56038;BME280;41907;47.848;9.000;2023-03-22T09:40:58;95580.28;;;29.30;26.76
56038;BME280;41907;47.848;9.000;2023-03-22T09:43:33;95576.38;;;28.98;26.44
56038;BME280;41907;47.848;9.000;2023-03-22T09:45:59;95572.94;;;28.45;27.56
56038;BME280;41907;47.848;9.000;2023-03-22T09:48:40;95566.84;;;28.70;27.65
56038;BME280;41907;47.848;9.000;2023-03-22T09:51:26;95566.97;;;25.81;29.69
56038;BME280;41907;47.848;9.000;2023-03-22T09:53:53;95559.00;;;25.64;30.71
56038;BME280;41907;47.848;9.000;2023-03-22T09:56:21;95550.34;;;27.03;29.33
56038;BME280;41907;47.848;9.000;2023-03-22T09:59:03;95549.59;;;26.76;30.70
56038;BME280;41907;47.848;9.000;2023-03-22T10:07:26;95545.28;;;27.01;27.83
56038;BME280;41907;47.848;9.000;2023-03-22T10:12:28;95527.56;;;25.82;30.28
56038;BME280;41907;47.848;9.000;2023-03-22T10:15:10;95513.28;;;26.98;28.80
56038;BME280;41907;47.848;9.000;2023-03-22T10:17:39;95517.31;;;28.09;27.05
56038;BME280;41907;47.848;9.000;2023-03-22T10:20:22;95521.66;;;24.30;31.52
56038;BME280;41907;47.848;9.000;2023-03-22T10:22:51;95512.47;;;23.12;33.66
56038;BME280;41907;47.848;9.000;2023-03-22T10:25:21;95511.38;;;23.93;33.11
56038;BME280;41907;47.848;9.000;2023-03-22T10:27:49;95509.06;;;22.80;33.37
56038;BME280;41907;47.848;9.000;2023-03-22T10:30:23;95504.03;;;23.87;32.33
56038;BME280;41907;47.848;9.000;2023-03-22T10:35:27;95501.97;;;25.35;30.64
56038;BME280;41907;47.848;9.000;2023-03-22T10:37:55;95504.78;;;25.92;29.56
56038;BME280;41907;47.848;9.000;2023-03-22T10:40:27;95492.44;;;24.75;33.43
56038;BME280;41907;47.848;9.000;2023-03-22T10:43:01;95497.66;;;25.38;30.26
56038;BME280;41907;47.848;9.000;2023-03-22T10:45:31;95499.31;;;25.92;29.83
56038;BME280;41907;47.848;9.000;2023-03-22T10:48:01;95500.56;;;25.20;30.54
56038;BME280;41907;47.848;9.000;2023-03-22T10:50:29;95495.81;;;23.10;33.36
56038;BME280;41907;47.848;9.000;2023-03-22T10:53:02;95494.00;;;23.73;31.60
56038;BME280;41907;47.848;9.000;2023-03-22T10:55:28;95484.53;;;23.92;31.41
56038;BME280;41907;47.848;9.000;2023-03-22T10:58:10;95490.25;;;25.38;30.87
56038;BME280;41907;47.848;9.000;2023-03-22T11:00:36;95489.25;;;25.21;29.92
56038;BME280;41907;47.848;9.000;2023-03-22T11:03:04;95485.75;;;25.21;29.99
56038;BME280;41907;47.848;9.000;2023-03-22T11:05:31;95486.56;;;24.36;30.86
56038;BME280;41907;47.848;9.000;2023-03-22T11:07:57;95482.09;;;23.35;31.84
56038;BME280;41907;47.848;9.000;2023-03-22T11:10:31;95477.59;;;23.84;31.80
56038;BME280;41907;47.848;9.000;2023-03-22T11:15:35;95478.38;;;22.69;32.73
56038;BME280;41907;47.848;9.000;2023-03-22T11:18:10;95468.69;;;22.50;33.13
56038;BME280;41907;47.848;9.000;2023-03-22T11:20:39;95470.75;;;21.09;34.31
56038;BME280;41907;47.848;9.000;2023-03-22T11:23:06;95460.75;;;20.52;36.00
56038;BME280;41907;47.848;9.000;2023-03-22T11:25:36;95448.56;;;20.86;36.45
56038;BME280;41907;47.848;9.000;2023-03-22T11:28:20;95454.34;;;20.81;36.58
56038;BME280;41907;47.848;9.000;2023-03-22T11:31:15;95447.66;;;20.61;34.82
56038;BME280;41907;47.848;9.000;2023-03-22T11:34:00;95435.97;;;21.26;35.02
56038;BME280;41907;47.848;9.000;2023-03-22T11:36:27;95443.44;;;21.61;37.30
56038;BME280;41907;47.848;9.000;2023-03-22T11:39:00;95446.16;;;21.82;34.68
56038;BME280;41907;47.848;9.000;2023-03-22T11:41:28;95438.75;;;21.54;34.19
56038;BME280;41907;47.848;9.000;2023-03-22T11:44:01;95442.84;;;21.05;35.44
56038;BME280;41907;47.848;9.000;2023-03-22T11:46:29;95434.81;;;21.23;37.29
56038;BME280;41907;47.848;9.000;2023-03-22T11:49:01;95432.91;;;21.38;35.18
56038;BME280;41907;47.848;9.000;2023-03-22T11:51:30;95434.97;;;20.79;35.86
56038;BME280;41907;47.848;9.000;2023-03-22T11:54:07;95433.44;;;20.82;37.35
56038;BME280;41907;47.848;9.000;2023-03-22T11:56:33;95434.53;;;20.70;37.63
56038;BME280;41907;47.848;9.000;2023-03-22T11:59:07;95437.38;;;20.98;35.85
56038;BME280;41907;47.848;9.000;2023-03-22T12:01:37;95426.47;;;20.80;35.22
56038;BME280;41907;47.848;9.000;2023-03-22T12:04:10;95410.28;;;21.05;34.17
56038;BME280;41907;47.848;9.000;2023-03-22T12:06:39;95417.22;;;20.85;33.70
56038;BME280;41907;47.848;9.000;2023-03-22T12:09:24;95401.91;;;21.32;33.52
56038;BME280;41907;47.848;9.000;2023-03-22T12:11:54;95398.81;;;21.44;33.75
56038;BME280;41907;47.848;9.000;2023-03-22T12:14:24;95403.84;;;21.31;33.92
56038;BME280;41907;47.848;9.000;2023-03-22T12:17:17;95390.09;;;20.89;32.93
56038;BME280;41907;47.848;9.000;2023-03-22T12:22:46;95392.13;;;21.09;32.99
56038;BME280;41907;47.848;9.000;2023-03-22T12:25:18;95374.00;;;21.38;33.55
56038;BME280;41907;47.848;9.000;2023-03-22T12:27:54;95385.88;;;20.95;33.61
56038;BME280;41907;47.848;9.000;2023-03-22T12:30:33;95385.03;;;20.80;34.56
56038;BME280;41907;47.848;9.000;2023-03-22T12:33:07;95381.72;;;20.39;34.09
56038;BME280;41907;47.848;9.000;2023-03-22T12:35:35;95382.63;;;20.61;33.70
56038;BME280;41907;47.848;9.000;2023-03-22T12:38:23;95369.53;;;20.77;34.22
56038;BME280;41907;47.848;9.000;2023-03-22T12:40:52;95369.91;;;20.72;33.58
56038;BME280;41907;47.848;9.000;2023-03-22T12:46:27;95377.69;;;20.84;32.19
56038;BME280;41907;47.848;9.000;2023-03-22T12:48:59;95362.72;;;21.26;32.41
56038;BME280;41907;47.848;9.000;2023-03-22T12:51:26;95365.69;;;20.82;32.12
56038;BME280;41907;47.848;9.000;2023-03-22T12:53:56;95366.50;;;20.96;32.29
56038;BME280;41907;47.848;9.000;2023-03-22T12:56:31;95359.94;;;21.04;32.97
56038;BME280;41907;47.848;9.000;2023-03-22T12:59:02;95356.47;;;21.07;31.74
56038;BME280;41907;47.848;9.000;2023-03-22T13:38:40;95334.06;;;20.27;33.78
56038;BME280;41907;47.848;9.000;2023-03-22T13:41:20;95323.31;;;20.38;33.65
56038;BME280;41907;47.848;9.000;2023-03-22T13:43:57;95325.69;;;20.47;33.44
56038;BME280;41907;47.848;9.000;2023-03-22T13:51:19;95322.53;;;20.37;33.55
56038;BME280;41907;47.848;9.000;2023-03-22T13:54:02;95313.56;;;20.33;32.89
56038;BME280;41907;47.848;9.000;2023-03-22T13:56:32;95311.69;;;20.37;32.89
56038;BME280;41907;47.848;9.000;2023-03-22T13:59:00;95305.81;;;20.28;32.30
56038;BME280;41907;47.848;9.000;2023-03-22T14:01:32;95303.53;;;20.34;33.26
56038;BME280;41907;47.848;9.000;2023-03-22T14:04:04;95300.94;;;20.59;34.31
56038;BME280;41907;47.848;9.000;2023-03-22T14:06:33;95297.31;;;20.33;32.88
56038;BME280;41907;47.848;9.000;2023-03-22T14:09:08;95297.16;;;20.01;32.96
56038;BME280;41907;47.848;9.000;2023-03-22T14:11:39;95296.41;;;20.04;32.68
56038;BME280;41907;47.848;9.000;2023-03-22T14:14:16;95297.75;;;19.70;32.09
56038;BME280;41907;47.848;9.000;2023-03-22T14:16:47;95287.53;;;19.49;32.54
56038;BME280;41907;47.848;9.000;2023-03-22T14:19:19;95290.47;;;19.81;34.13
56038;BME280;41907;47.848;9.000;2023-03-22T14:21:49;95283.09;;;19.78;33.51
56038;BME280;41907;47.848;9.000;2023-03-22T14:24:16;95273.31;;;19.63;33.09
56038;BME280;41907;47.848;9.000;2023-03-22T14:26:54;95271.47;;;19.71;33.32
56038;BME280;41907;47.848;9.000;2023-03-22T14:31:55;95286.09;;;19.62;33.22
56038;BME280;41907;47.848;9.000;2023-03-22T14:34:22;95274.94;;;19.71;33.00
56038;BME280;41907;47.848;9.000;2023-03-22T14:36:53;95269.31;;;19.46;33.27
56038;BME280;41907;47.848;9.000;2023-03-22T14:39:30;95263.81;;;19.32;33.14
56038;BME280;41907;47.848;9.000;2023-03-22T14:44:24;95256.16;;;19.45;33.38
56038;BME280;41907;47.848;9.000;2023-03-22T14:46:49;95259.50;;;19.27;32.82